sensor_id;sensor_type;location;lat;lon;timestamp;P1;durP1;ratioP1;P2;durP2;ratioP2
6292;SDS011;3179;54.350;10.102;2022-08-18T00:01:38;6.83;;;4.70;;
6292;SDS011;3179;54.350;10.102;2022-08-18T00:04:06;5.67;;;5.17;;
6292;SDS011;3179;54.350;10.102;2022-08-18T00:06:32;4.97;;;4.03;;
6292;SDS011;3179;54.350;10.102;2022-08-18T00:09:00;7.80;;;4.40;;
6292;SDS011;3179;54.350;10.102;2022-08-18T00:11:40;6.10;;;4.27;;
6292;SDS011;3179;54.350;10.102;2022-08-18T00:14:10;4.70;;;4.07;;
6292;SDS011;3179;54.350;10.102;2022-08-18T00:16:38;3.93;;;3.60;;
6292;SDS011;3179;54.350;10.102;2022-08-18T00:19:05;4.47;;;4.07;;
6292;SDS011;3179;54.350;10.102;2022-08-18T00:21:32;4.03;;;3.60;;
6292;SDS011;3179;54.350;10.102;2022-08-18T00:23:59;4.87;;;4.07;;
6292;SDS011;3179;54.350;10.102;2022-08-18T00:26:26;3.60;;;3.30;;
6292;SDS011;3179;54.350;10.102;2022-08-18T00:28:54;3.70;;;3.43;;
6292;SDS011;3179;54.350;10.102;2022-08-18T00:31:21;3.87;;;3.57;;
6292;SDS011;3179;54.350;10.102;2022-08-18T00:33:47;3.60;;;3.30;;
6292;SDS011;3179;54.350;10.102;2022-08-18T00:36:14;3.00;;;2.80;;
6292;SDS011;3179;54.350;10.102;2022-08-18T00:38:41;3.00;;;2.80;;
6292;SDS011;3179;54.350;10.102;2022-08-18T00:41:08;3.20;;;3.00;;
6292;SDS011;3179;54.350;10.102;2022-08-18T00:43:36;3.40;;;3.20;;
6292;SDS011;3179;54.350;10.102;2022-08-18T00:46:08;3.00;;;2.70;;
6292;SDS011;3179;54.350;10.102;2022-08-18T00:48:39;4.90;;;3.00;;
6292;SDS011;3179;54.350;10.102;2022-08-18T00:51:07;2.93;;;2.63;;
6292;SDS011;3179;54.350;10.102;2022-08-18T00:53:37;2.70;;;2.50;;
6292;SDS011;3179;54.350;10.102;2022-08-18T00:56:10;2.60;;;2.40;;
6292;SDS011;3179;54.350;10.102;2022-08-18T00:58:40;2.50;;;2.30;;
6292;SDS011;3179;54.350;10.102;2022-08-18T01:01:13;3.40;;;2.50;;
6292;SDS011;3179;54.350;10.102;2022-08-18T01:03:42;2.30;;;2.20;;
6292;SDS011;3179;54.350;10.102;2022-08-18T01:06:19;2.80;;;2.60;;
6292;SDS011;3179;54.350;10.102;2022-08-18T01:08:51;3.57;;;2.53;;
6292;SDS011;3179;54.350;10.102;2022-08-18T01:11:18;2.40;;;2.23;;
6292;SDS011;3179;54.350;10.102;2022-08-18T01:13:45;3.23;;;2.93;;
6292;SDS011;3179;54.350;10.102;2022-08-18T01:16:13;4.30;;;2.97;;
6292;SDS011;3179;54.350;10.102;2022-08-18T01:18:57;3.20;;;2.80;;
6292;SDS011;3179;54.350;10.102;2022-08-18T01:21:42;3.87;;;2.40;;
6292;SDS011;3179;54.350;10.102;2022-08-18T01:24:20;3.17;;;2.87;;
6292;SDS011;3179;54.350;10.102;2022-08-18T01:27:13;3.73;;;2.30;;
6292;SDS011;3179;54.350;10.102;2022-08-18T01:29:42;3.10;;;2.50;;
6292;SDS011;3179;54.350;10.102;2022-08-18T01:32:10;2.47;;;2.27;;
6292;SDS011;3179;54.350;10.102;2022-08-18T01:34:40;2.50;;;2.30;;
6292;SDS011;3179;54.350;10.102;2022-08-18T01:37:09;2.27;;;2.07;;
6292;SDS011;3179;54.350;10.102;2022-08-18T01:39:37;2.27;;;2.07;;
6292;SDS011;3179;54.350;10.102;2022-08-18T01:42:04;2.43;;;2.23;;
6292;SDS011;3179;54.350;10.102;2022-08-18T01:44:31;3.53;;;2.63;;
6292;SDS011;3179;54.350;10.102;2022-08-18T01:46:57;3.77;;;2.57;;
6292;SDS011;3179;54.350;10.102;2022-08-18T01:49:24;3.80;;;2.20;;
6292;SDS011;3179;54.350;10.102;2022-08-18T01:51:52;2.60;;;2.13;;
6292;SDS011;3179;54.350;10.102;2022-08-18T01:54:19;1.90;;;1.80;;
6292;SDS011;3179;54.350;10.102;2022-08-18T01:56:48;3.07;;;2.27;;
6292;SDS011;3179;54.350;10.102;2022-08-18T01:59:16;2.33;;;2.13;;
6292;SDS011;3179;54.350;10.102;2022-08-18T02:01:44;4.80;;;2.23;;
6292;SDS011;3179;54.350;10.102;2022-08-18T02:04:13;2.23;;;2.03;;
6292;SDS011;3179;54.350;10.102;2022-08-18T02:06:41;3.10;;;2.27;;
6292;SDS011;3179;54.350;10.102;2022-08-18T02:09:08;2.17;;;2.03;;
6292;SDS011;3179;54.350;10.102;2022-08-18T02:11:35;2.00;;;1.90;;
6292;SDS011;3179;54.350;10.102;2022-08-18T02:14:03;1.77;;;1.67;;
6292;SDS011;3179;54.350;10.102;2022-08-18T02:16:30;2.10;;;2.00;;
6292;SDS011;3179;54.350;10.102;2022-08-18T02:18:58;4.20;;;2.00;;
6292;SDS011;3179;54.350;10.102;2022-08-18T02:21:24;2.00;;;1.90;;
6292;SDS011;3179;54.350;10.102;2022-08-18T02:23:51;4.17;;;2.00;;
6292;SDS011;3179;54.350;10.102;2022-08-18T02:26:18;4.23;;;1.80;;
6292;SDS011;3179;54.350;10.102;2022-08-18T02:28:45;2.10;;;2.00;;
6292;SDS011;3179;54.350;10.102;2022-08-18T02:31:14;2.00;;;1.90;;
6292;SDS011;3179;54.350;10.102;2022-08-18T02:33:43;2.03;;;1.63;;
6292;SDS011;3179;54.350;10.102;2022-08-18T02:36:10;3.67;;;2.20;;
6292;SDS011;3179;54.350;10.102;2022-08-18T02:38:37;2.87;;;2.03;;
6292;SDS011;3179;54.350;10.102;2022-08-18T02:41:05;1.97;;;1.77;;
6292;SDS011;3179;54.350;10.102;2022-08-18T02:43:34;3.80;;;1.70;;
6292;SDS011;3179;54.350;10.102;2022-08-18T02:46:02;1.97;;;1.57;;
6292;SDS011;3179;54.350;10.102;2022-08-18T02:48:32;2.90;;;1.53;;
6292;SDS011;3179;54.350;10.102;2022-08-18T02:51:02;2.63;;;1.93;;
6292;SDS011;3179;54.350;10.102;2022-08-18T02:53:30;2.37;;;1.70;;
6292;SDS011;3179;54.350;10.102;2022-08-18T02:56:03;2.80;;;1.67;;
6292;SDS011;3179;54.350;10.102;2022-08-18T02:58:40;6.20;;;1.60;;
6292;SDS011;3179;54.350;10.102;2022-08-18T03:01:07;1.60;;;1.50;;
6292;SDS011;3179;54.350;10.102;2022-08-18T03:03:35;2.70;;;1.90;;
6292;SDS011;3179;54.350;10.102;2022-08-18T03:06:02;1.70;;;1.60;;
6292;SDS011;3179;54.350;10.102;2022-08-18T03:08:30;1.60;;;1.50;;
6292;SDS011;3179;54.350;10.102;2022-08-18T03:10:57;1.73;;;1.60;;
6292;SDS011;3179;54.350;10.102;2022-08-18T03:13:24;3.77;;;1.80;;
6292;SDS011;3179;54.350;10.102;2022-08-18T03:15:51;1.97;;;1.50;;
6292;SDS011;3179;54.350;10.102;2022-08-18T03:18:18;2.47;;;1.70;;
6292;SDS011;3179;54.350;10.102;2022-08-18T03:20:48;1.73;;;1.63;;
6292;SDS011;3179;54.350;10.102;2022-08-18T03:23:14;1.77;;;1.67;;
6292;SDS011;3179;54.350;10.102;2022-08-18T03:25:43;2.40;;;1.33;;
6292;SDS011;3179;54.350;10.102;2022-08-18T03:28:11;2.63;;;1.70;;
6292;SDS011;3179;54.350;10.102;2022-08-18T03:30:38;2.40;;;1.60;;
6292;SDS011;3179;54.350;10.102;2022-08-18T03:33:05;1.67;;;1.57;;
6292;SDS011;3179;54.350;10.102;2022-08-18T03:35:33;1.63;;;1.40;;
6292;SDS011;3179;54.350;10.102;2022-08-18T03:38:01;1.47;;;1.47;;
6292;SDS011;3179;54.350;10.102;2022-08-18T03:40:28;2.47;;;1.73;;
6292;SDS011;3179;54.350;10.102;2022-08-18T03:42:55;2.87;;;1.60;;
6292;SDS011;3179;54.350;10.102;2022-08-18T03:45:22;2.30;;;1.60;;
6292;SDS011;3179;54.350;10.102;2022-08-18T03:47:52;1.90;;;1.30;;
6292;SDS011;3179;54.350;10.102;2022-08-18T03:50:19;1.40;;;1.40;;
6292;SDS011;3179;54.350;10.102;2022-08-18T03:52:49;1.63;;;1.53;;
6292;SDS011;3179;54.350;10.102;2022-08-18T03:55:18;1.60;;;1.50;;
6292;SDS011;3179;54.350;10.102;2022-08-18T03:57:45;2.10;;;1.80;;
6292;SDS011;3179;54.350;10.102;2022-08-18T04:00:12;3.73;;;2.03;;
6292;SDS011;3179;54.350;10.102;2022-08-18T04:02:39;1.90;;;1.67;;
6292;SDS011;3179;54.350;10.102;2022-08-18T04:05:06;1.83;;;1.70;;
6292;SDS011;3179;54.350;10.102;2022-08-18T04:07:36;7.33;;;2.50;;
6292;SDS011;3179;54.350;10.102;2022-08-18T04:10:05;3.03;;;2.27;;
6292;SDS011;3179;54.350;10.102;2022-08-18T04:12:34;1.90;;;1.70;;
6292;SDS011;3179;54.350;10.102;2022-08-18T04:15:01;2.10;;;2.00;;
6292;SDS011;3179;54.350;10.102;2022-08-18T04:17:28;2.00;;;1.90;;
6292;SDS011;3179;54.350;10.102;2022-08-18T04:19:54;7.77;;;2.33;;
6292;SDS011;3179;54.350;10.102;2022-08-18T04:22:21;2.03;;;1.93;;
6292;SDS011;3179;54.350;10.102;2022-08-18T04:24:50;2.63;;;2.43;;
6292;SDS011;3179;54.350;10.102;2022-08-18T04:27:18;3.27;;;2.23;;
6292;SDS011;3179;54.350;10.102;2022-08-18T04:29:47;2.30;;;2.20;;
6292;SDS011;3179;54.350;10.102;2022-08-18T04:32:14;2.90;;;2.50;;
6292;SDS011;3179;54.350;10.102;2022-08-18T04:34:41;3.70;;;2.80;;
6292;SDS011;3179;54.350;10.102;2022-08-18T04:37:08;4.60;;;2.27;;
6292;SDS011;3179;54.350;10.102;2022-08-18T04:39:35;3.37;;;2.70;;
6292;SDS011;3179;54.350;10.102;2022-08-18T04:42:03;3.83;;;3.13;;
6292;SDS011;3179;54.350;10.102;2022-08-18T04:44:30;3.73;;;2.40;;
6292;SDS011;3179;54.350;10.102;2022-08-18T04:46:59;3.47;;;2.97;;
6292;SDS011;3179;54.350;10.102;2022-08-18T04:49:26;2.90;;;2.70;;
6292;SDS011;3179;54.350;10.102;2022-08-18T04:51:54;2.80;;;2.60;;
6292;SDS011;3179;54.350;10.102;2022-08-18T04:54:38;3.03;;;2.70;;
6292;SDS011;3179;54.350;10.102;2022-08-18T04:57:06;3.27;;;3.07;;
6292;SDS011;3179;54.350;10.102;2022-08-18T04:59:35;2.80;;;2.67;;
6292;SDS011;3179;54.350;10.102;2022-08-18T05:02:05;3.10;;;2.90;;
6292;SDS011;3179;54.350;10.102;2022-08-18T05:04:34;3.33;;;3.03;;
6292;SDS011;3179;54.350;10.102;2022-08-18T05:07:01;3.40;;;3.20;;
6292;SDS011;3179;54.350;10.102;2022-08-18T05:09:29;2.93;;;2.70;;
6292;SDS011;3179;54.350;10.102;2022-08-18T05:11:56;3.43;;;3.13;;
6292;SDS011;3179;54.350;10.102;2022-08-18T05:14:23;5.30;;;3.40;;
6292;SDS011;3179;54.350;10.102;2022-08-18T05:16:50;3.40;;;3.00;;
6292;SDS011;3179;54.350;10.102;2022-08-18T05:19:19;3.33;;;3.03;;
6292;SDS011;3179;54.350;10.102;2022-08-18T05:21:46;3.23;;;3.03;;
6292;SDS011;3179;54.350;10.102;2022-08-18T05:24:13;3.47;;;3.17;;
6292;SDS011;3179;54.350;10.102;2022-08-18T05:26:40;3.50;;;3.30;;
6292;SDS011;3179;54.350;10.102;2022-08-18T05:29:07;3.10;;;2.90;;
6292;SDS011;3179;54.350;10.102;2022-08-18T05:31:34;3.53;;;3.23;;
6292;SDS011;3179;54.350;10.102;2022-08-18T05:34:01;2.70;;;2.57;;
6292;SDS011;3179;54.350;10.102;2022-08-18T05:39:23;2.87;;;2.67;;
6292;SDS011;3179;54.350;10.102;2022-08-18T05:41:54;3.20;;;2.90;;
6292;SDS011;3179;54.350;10.102;2022-08-18T05:44:32;3.30;;;3.10;;
6292;SDS011;3179;54.350;10.102;2022-08-18T05:47:04;3.20;;;3.00;;
6292;SDS011;3179;54.350;10.102;2022-08-18T05:49:33;2.90;;;2.70;;
6292;SDS011;3179;54.350;10.102;2022-08-18T05:52:04;3.40;;;3.00;;
6292;SDS011;3179;54.350;10.102;2022-08-18T05:54:35;5.63;;;3.17;;
6292;SDS011;3179;54.350;10.102;2022-08-18T05:57:24;3.00;;;2.80;;
6292;SDS011;3179;54.350;10.102;2022-08-18T05:59:56;3.27;;;3.07;;
6292;SDS011;3179;54.350;10.102;2022-08-18T06:02:27;3.00;;;2.80;;
6292;SDS011;3179;54.350;10.102;2022-08-18T06:04:58;3.77;;;3.47;;
6292;SDS011;3179;54.350;10.102;2022-08-18T06:07:32;3.63;;;3.33;;
6292;SDS011;3179;54.350;10.102;2022-08-18T06:10:01;4.40;;;3.17;;
6292;SDS011;3179;54.350;10.102;2022-08-18T06:12:32;4.03;;;3.70;;
6292;SDS011;3179;54.350;10.102;2022-08-18T06:15:03;3.27;;;3.07;;
6292;SDS011;3179;54.350;10.102;2022-08-18T06:17:39;3.50;;;3.30;;
6292;SDS011;3179;54.350;10.102;2022-08-18T06:20:20;3.50;;;3.20;;
6292;SDS011;3179;54.350;10.102;2022-08-18T06:22:57;3.90;;;3.60;;
6292;SDS011;3179;54.350;10.102;2022-08-18T06:25:34;3.50;;;3.30;;
6292;SDS011;3179;54.350;10.102;2022-08-18T06:28:14;4.07;;;3.67;;
6292;SDS011;3179;54.350;10.102;2022-08-18T06:30:45;4.00;;;3.63;;
6292;SDS011;3179;54.350;10.102;2022-08-18T06:33:24;4.33;;;4.03;;
6292;SDS011;3179;54.350;10.102;2022-08-18T06:36:03;3.50;;;3.30;;
6292;SDS011;3179;54.350;10.102;2022-08-18T06:38:41;3.90;;;3.70;;
6292;SDS011;3179;54.350;10.102;2022-08-18T06:41:21;10.37;;;4.27;;
6292;SDS011;3179;54.350;10.102;2022-08-18T06:43:54;6.17;;;4.30;;
6292;SDS011;3179;54.350;10.102;2022-08-18T06:46:28;4.47;;;4.07;;
6292;SDS011;3179;54.350;10.102;2022-08-18T06:49:06;4.27;;;3.87;;
6292;SDS011;3179;54.350;10.102;2022-08-18T06:51:34;5.50;;;4.77;;
6292;SDS011;3179;54.350;10.102;2022-08-18T06:54:03;4.30;;;3.90;;
6292;SDS011;3179;54.350;10.102;2022-08-18T06:56:33;5.07;;;4.67;;
6292;SDS011;3179;54.350;10.102;2022-08-18T06:59:13;5.57;;;4.43;;
6292;SDS011;3179;54.350;10.102;2022-08-18T07:01:42;4.90;;;4.50;;
6292;SDS011;3179;54.350;10.102;2022-08-18T07:04:25;5.13;;;4.63;;
6292;SDS011;3179;54.350;10.102;2022-08-18T07:07:10;5.17;;;4.50;;
6292;SDS011;3179;54.350;10.102;2022-08-18T07:09:41;5.13;;;4.67;;
6292;SDS011;3179;54.350;10.102;2022-08-18T07:12:09;6.80;;;5.30;;
6292;SDS011;3179;54.350;10.102;2022-08-18T07:14:47;5.50;;;5.00;;
6292;SDS011;3179;54.350;10.102;2022-08-18T07:17:18;5.10;;;4.60;;
6292;SDS011;3179;54.350;10.102;2022-08-18T07:19:53;5.17;;;4.77;;
6292;SDS011;3179;54.350;10.102;2022-08-18T07:22:32;5.57;;;5.17;;
6292;SDS011;3179;54.350;10.102;2022-08-18T07:25:20;5.13;;;4.73;;
6292;SDS011;3179;54.350;10.102;2022-08-18T07:27:50;5.87;;;5.33;;
6292;SDS011;3179;54.350;10.102;2022-08-18T07:30:28;5.23;;;4.83;;
6292;SDS011;3179;54.350;10.102;2022-08-18T07:33:02;11.03;;;5.30;;
6292;SDS011;3179;54.350;10.102;2022-08-18T07:35:37;5.80;;;5.30;;
6292;SDS011;3179;54.350;10.102;2022-08-18T07:38:09;5.83;;;5.33;;
6292;SDS011;3179;54.350;10.102;2022-08-18T07:40:44;6.00;;;5.50;;
6292;SDS011;3179;54.350;10.102;2022-08-18T07:43:19;5.67;;;5.17;;
6292;SDS011;3179;54.350;10.102;2022-08-18T07:45:51;6.07;;;5.57;;
6292;SDS011;3179;54.350;10.102;2022-08-18T07:48:27;6.90;;;6.30;;
6292;SDS011;3179;54.350;10.102;2022-08-18T07:50:58;6.50;;;5.90;;
6292;SDS011;3179;54.350;10.102;2022-08-18T07:53:41;7.47;;;6.77;;
6292;SDS011;3179;54.350;10.102;2022-08-18T07:56:18;7.23;;;6.53;;
6292;SDS011;3179;54.350;10.102;2022-08-18T07:58:50;6.37;;;5.77;;
6292;SDS011;3179;54.350;10.102;2022-08-18T08:01:22;6.30;;;5.70;;
6292;SDS011;3179;54.350;10.102;2022-08-18T08:04:01;6.83;;;6.23;;
6292;SDS011;3179;54.350;10.102;2022-08-18T08:06:41;6.63;;;6.13;;
6292;SDS011;3179;54.350;10.102;2022-08-18T08:09:11;6.97;;;6.30;;
6292;SDS011;3179;54.350;10.102;2022-08-18T08:11:50;6.70;;;6.00;;
6292;SDS011;3179;54.350;10.102;2022-08-18T08:14:25;6.77;;;6.17;;
6292;SDS011;3179;54.350;10.102;2022-08-18T08:17:06;6.07;;;5.57;;
6292;SDS011;3179;54.350;10.102;2022-08-18T08:19:53;6.43;;;5.93;;
6292;SDS011;3179;54.350;10.102;2022-08-18T08:22:36;8.50;;;6.17;;
6292;SDS011;3179;54.350;10.102;2022-08-18T08:25:11;9.83;;;6.37;;
6292;SDS011;3179;54.350;10.102;2022-08-18T08:27:49;6.30;;;5.80;;
6292;SDS011;3179;54.350;10.102;2022-08-18T08:30:32;5.70;;;5.20;;
6292;SDS011;3179;54.350;10.102;2022-08-18T08:33:08;8.20;;;6.20;;
6292;SDS011;3179;54.350;10.102;2022-08-18T08:35:40;6.43;;;5.83;;
6292;SDS011;3179;54.350;10.102;2022-08-18T08:38:11;6.20;;;5.80;;
6292;SDS011;3179;54.350;10.102;2022-08-18T08:40:45;7.07;;;6.33;;
6292;SDS011;3179;54.350;10.102;2022-08-18T08:43:20;7.17;;;6.47;;
6292;SDS011;3179;54.350;10.102;2022-08-18T08:45:51;7.40;;;6.70;;
6292;SDS011;3179;54.350;10.102;2022-08-18T08:48:26;7.60;;;6.60;;
6292;SDS011;3179;54.350;10.102;2022-08-18T08:50:57;6.33;;;5.90;;
6292;SDS011;3179;54.350;10.102;2022-08-18T08:53:27;9.80;;;6.10;;
6292;SDS011;3179;54.350;10.102;2022-08-18T08:56:00;6.03;;;5.53;;
6292;SDS011;3179;54.350;10.102;2022-08-18T08:58:35;6.30;;;5.70;;
6292;SDS011;3179;54.350;10.102;2022-08-18T09:01:11;6.30;;;5.70;;
6292;SDS011;3179;54.350;10.102;2022-08-18T09:03:55;7.20;;;6.60;;
6292;SDS011;3179;54.350;10.102;2022-08-18T09:06:29;7.07;;;5.80;;
6292;SDS011;3179;54.350;10.102;2022-08-18T09:09:14;8.03;;;7.33;;
6292;SDS011;3179;54.350;10.102;2022-08-18T09:11:56;7.80;;;7.10;;
6292;SDS011;3179;54.350;10.102;2022-08-18T09:14:41;8.83;;;6.50;;
6292;SDS011;3179;54.350;10.102;2022-08-18T09:17:33;6.30;;;5.70;;
6292;SDS011;3179;54.350;10.102;2022-08-18T09:20:27;7.17;;;6.20;;
6292;SDS011;3179;54.350;10.102;2022-08-18T09:23:03;8.17;;;7.40;;
6292;SDS011;3179;54.350;10.102;2022-08-18T09:25:43;6.87;;;6.10;;
6292;SDS011;3179;54.350;10.102;2022-08-18T09:28:12;10.03;;;6.73;;
6292;SDS011;3179;54.350;10.102;2022-08-18T09:30:45;7.03;;;5.97;;
6292;SDS011;3179;54.350;10.102;2022-08-18T09:33:19;8.67;;;6.00;;
6292;SDS011;3179;54.350;10.102;2022-08-18T09:36:17;7.13;;;6.47;;
6292;SDS011;3179;54.350;10.102;2022-08-18T09:38:54;7.40;;;6.40;;
6292;SDS011;3179;54.350;10.102;2022-08-18T09:41:44;6.43;;;5.93;;
6292;SDS011;3179;54.350;10.102;2022-08-18T09:59:53;6.90;;;6.30;;
6292;SDS011;3179;54.350;10.102;2022-08-18T10:05:36;5.83;;;5.30;;
6292;SDS011;3179;54.350;10.102;2022-08-18T10:11:04;8.50;;;5.83;;
6292;SDS011;3179;54.350;10.102;2022-08-18T10:13:44;6.17;;;5.67;;
6292;SDS011;3179;54.350;10.102;2022-08-18T10:16:17;6.60;;;6.00;;
6292;SDS011;3179;54.350;10.102;2022-08-18T10:18:54;6.80;;;6.20;;
6292;SDS011;3179;54.350;10.102;2022-08-18T10:24:28;9.27;;;7.67;;
6292;SDS011;3179;54.350;10.102;2022-08-18T10:26:59;7.30;;;6.43;;
6292;SDS011;3179;54.350;10.102;2022-08-18T10:41:11;5.90;;;5.40;;
6292;SDS011;3179;54.350;10.102;2022-08-18T10:43:50;5.23;;;4.83;;
6292;SDS011;3179;54.350;10.102;2022-08-18T10:46:20;5.60;;;5.10;;
6292;SDS011;3179;54.350;10.102;2022-08-18T10:49:02;6.00;;;5.50;;
6292;SDS011;3179;54.350;10.102;2022-08-18T10:51:38;5.07;;;4.67;;
6292;SDS011;3179;54.350;10.102;2022-08-18T10:54:19;6.30;;;5.50;;
6292;SDS011;3179;54.350;10.102;2022-08-18T10:56:56;5.60;;;5.10;;
6292;SDS011;3179;54.350;10.102;2022-08-18T10:59:34;5.50;;;5.10;;
6292;SDS011;3179;54.350;10.102;2022-08-18T11:02:13;5.60;;;5.20;;
6292;SDS011;3179;54.350;10.102;2022-08-18T11:04:54;5.00;;;4.50;;
6292;SDS011;3179;54.350;10.102;2022-08-18T11:07:21;5.70;;;5.20;;
6292;SDS011;3179;54.350;10.102;2022-08-18T11:09:51;7.43;;;5.27;;
6292;SDS011;3179;54.350;10.102;2022-08-18T11:15:13;5.93;;;5.40;;
6292;SDS011;3179;54.350;10.102;2022-08-18T11:17:48;5.20;;;4.90;;
6292;SDS011;3179;54.350;10.102;2022-08-18T11:20:26;8.40;;;5.40;;
6292;SDS011;3179;54.350;10.102;2022-08-18T11:22:56;6.03;;;5.57;;
6292;SDS011;3179;54.350;10.102;2022-08-18T11:25:26;6.53;;;5.90;;
6292;SDS011;3179;54.350;10.102;2022-08-18T11:27:58;7.20;;;6.50;;
6292;SDS011;3179;54.350;10.102;2022-08-18T11:30:27;6.67;;;6.07;;
6292;SDS011;3179;54.350;10.102;2022-08-18T11:32:56;6.60;;;5.43;;
6292;SDS011;3179;54.350;10.102;2022-08-18T11:35:25;5.40;;;5.00;;
6292;SDS011;3179;54.350;10.102;2022-08-18T11:37:56;5.87;;;5.37;;
6292;SDS011;3179;54.350;10.102;2022-08-18T11:40:29;7.40;;;6.87;;
6292;SDS011;3179;54.350;10.102;2022-08-18T11:43:01;6.13;;;5.63;;
6292;SDS011;3179;54.350;10.102;2022-08-18T11:45:31;9.50;;;6.20;;
6292;SDS011;3179;54.350;10.102;2022-08-18T11:48:01;6.87;;;6.30;;
6292;SDS011;3179;54.350;10.102;2022-08-18T11:50:43;7.73;;;7.03;;
6292;SDS011;3179;54.350;10.102;2022-08-18T11:53:13;7.10;;;6.50;;
6292;SDS011;3179;54.350;10.102;2022-08-18T11:55:49;6.90;;;6.17;;
6292;SDS011;3179;54.350;10.102;2022-08-18T11:58:40;7.33;;;6.73;;
6292;SDS011;3179;54.350;10.102;2022-08-18T12:01:10;6.97;;;6.30;;
6292;SDS011;3179;54.350;10.102;2022-08-18T12:03:52;6.43;;;5.93;;
6292;SDS011;3179;54.350;10.102;2022-08-18T12:06:20;6.43;;;5.70;;
6292;SDS011;3179;54.350;10.102;2022-08-18T12:08:51;7.07;;;6.50;;
6292;SDS011;3179;54.350;10.102;2022-08-18T12:11:25;6.83;;;6.23;;
6292;SDS011;3179;54.350;10.102;2022-08-18T12:14:00;6.23;;;5.70;;
6292;SDS011;3179;54.350;10.102;2022-08-18T12:16:34;7.90;;;7.10;;
6292;SDS011;3179;54.350;10.102;2022-08-18T12:19:03;7.33;;;6.27;;
6292;SDS011;3179;54.350;10.102;2022-08-18T12:21:31;8.37;;;6.30;;
6292;SDS011;3179;54.350;10.102;2022-08-18T12:23:59;6.30;;;5.70;;
6292;SDS011;3179;54.350;10.102;2022-08-18T12:26:25;7.83;;;7.03;;
6292;SDS011;3179;54.350;10.102;2022-08-18T12:28:52;7.30;;;6.60;;
6292;SDS011;3179;54.350;10.102;2022-08-18T12:31:20;6.03;;;5.53;;
6292;SDS011;3179;54.350;10.102;2022-08-18T12:33:47;8.67;;;6.93;;
6292;SDS011;3179;54.350;10.102;2022-08-18T12:36:14;7.30;;;6.63;;
6292;SDS011;3179;54.350;10.102;2022-08-18T12:38:42;7.50;;;6.50;;
6292;SDS011;3179;54.350;10.102;2022-08-18T12:41:10;7.50;;;6.80;;
6292;SDS011;3179;54.350;10.102;2022-08-18T12:43:39;6.87;;;6.37;;
6292;SDS011;3179;54.350;10.102;2022-08-18T12:46:06;8.90;;;8.20;;
6292;SDS011;3179;54.350;10.102;2022-08-18T12:48:35;8.50;;;7.70;;
6292;SDS011;3179;54.350;10.102;2022-08-18T12:51:03;8.50;;;7.80;;
6292;SDS011;3179;54.350;10.102;2022-08-18T12:53:30;9.47;;;8.60;;
6292;SDS011;3179;54.350;10.102;2022-08-18T12:55:57;12.43;;;11.33;;
6292;SDS011;3179;54.350;10.102;2022-08-18T12:58:25;10.57;;;9.53;;
6292;SDS011;3179;54.350;10.102;2022-08-18T13:00:52;11.37;;;10.10;;
6292;SDS011;3179;54.350;10.102;2022-08-18T13:03:19;11.70;;;10.50;;
6292;SDS011;3179;54.350;10.102;2022-08-18T13:05:47;12.70;;;11.50;;
6292;SDS011;3179;54.350;10.102;2022-08-18T13:08:16;12.00;;;10.87;;
6292;SDS011;3179;54.350;10.102;2022-08-18T13:10:45;11.97;;;10.87;;
6292;SDS011;3179;54.350;10.102;2022-08-18T13:13:13;13.33;;;12.07;;
6292;SDS011;3179;54.350;10.102;2022-08-18T13:15:41;12.40;;;11.30;;
6292;SDS011;3179;54.350;10.102;2022-08-18T13:18:08;12.10;;;11.00;;
6292;SDS011;3179;54.350;10.102;2022-08-18T13:20:35;15.90;;;14.33;;
6292;SDS011;3179;54.350;10.102;2022-08-18T13:23:03;14.40;;;13.03;;
6292;SDS011;3179;54.350;10.102;2022-08-18T13:25:30;13.73;;;12.43;;
6292;SDS011;3179;54.350;10.102;2022-08-18T13:27:57;13.40;;;12.10;;
6292;SDS011;3179;54.350;10.102;2022-08-18T13:30:24;12.03;;;10.80;;
6292;SDS011;3179;54.350;10.102;2022-08-18T13:32:51;14.77;;;13.33;;
6292;SDS011;3179;54.350;10.102;2022-08-18T13:35:19;11.50;;;10.30;;
6292;SDS011;3179;54.350;10.102;2022-08-18T13:37:46;12.70;;;11.50;;
6292;SDS011;3179;54.350;10.102;2022-08-18T13:40:15;10.77;;;9.80;;
6292;SDS011;3179;54.350;10.102;2022-08-18T13:42:43;12.50;;;11.23;;
6292;SDS011;3179;54.350;10.102;2022-08-18T13:45:13;11.97;;;10.77;;
6292;SDS011;3179;54.350;10.102;2022-08-18T13:47:41;11.73;;;10.63;;
6292;SDS011;3179;54.350;10.102;2022-08-18T13:50:08;13.70;;;12.30;;
6292;SDS011;3179;54.350;10.102;2022-08-18T13:52:36;11.13;;;10.13;;
6292;SDS011;3179;54.350;10.102;2022-08-18T13:55:04;10.73;;;9.63;;
6292;SDS011;3179;54.350;10.102;2022-08-18T13:57:35;9.97;;;9.07;;
6292;SDS011;3179;54.350;10.102;2022-08-18T14:00:04;9.60;;;8.80;;
6292;SDS011;3179;54.350;10.102;2022-08-18T14:02:56;9.57;;;8.77;;
6292;SDS011;3179;54.350;10.102;2022-08-18T14:05:24;10.10;;;9.20;;
6292;SDS011;3179;54.350;10.102;2022-08-18T14:07:52;9.65;;;8.85;;
6292;SDS011;3179;54.350;10.102;2022-08-18T14:10:19;9.32;;;8.52;;
6292;SDS011;3179;54.350;10.102;2022-08-18T14:12:53;8.75;;;7.95;;
6292;SDS011;3179;54.350;10.102;2022-08-18T14:15:22;9.52;;;8.68;;
6292;SDS011;3179;54.350;10.102;2022-08-18T14:17:49;7.68;;;6.93;;
6292;SDS011;3179;54.350;10.102;2022-08-18T14:20:16;8.35;;;7.75;;
6292;SDS011;3179;54.350;10.102;2022-08-18T14:23:01;8.20;;;7.55;;
6292;SDS011;3179;54.350;10.102;2022-08-18T14:25:47;7.63;;;6.85;;
6292;SDS011;3179;54.350;10.102;2022-08-18T14:28:33;7.68;;;6.97;;
6292;SDS011;3179;54.350;10.102;2022-08-18T14:31:01;7.32;;;6.72;;
6292;SDS011;3179;54.350;10.102;2022-08-18T14:33:29;8.63;;;7.80;;
6292;SDS011;3179;54.350;10.102;2022-08-18T14:36:00;8.13;;;7.43;;
6292;SDS011;3179;54.350;10.102;2022-08-18T14:38:27;7.15;;;6.65;;
6292;SDS011;3179;54.350;10.102;2022-08-18T14:41:04;8.88;;;7.90;;
6292;SDS011;3179;54.350;10.102;2022-08-18T14:43:33;8.90;;;8.00;;
6292;SDS011;3179;54.350;10.102;2022-08-18T14:46:01;8.50;;;7.80;;
6292;SDS011;3179;54.350;10.102;2022-08-18T14:48:29;9.18;;;8.38;;
6292;SDS011;3179;54.350;10.102;2022-08-18T14:50:57;9.50;;;8.73;;
6292;SDS011;3179;54.350;10.102;2022-08-18T14:53:29;9.40;;;8.60;;
6292;SDS011;3179;54.350;10.102;2022-08-18T14:55:58;8.98;;;8.10;;
6292;SDS011;3179;54.350;10.102;2022-08-18T14:58:27;9.03;;;8.13;;
6292;SDS011;3179;54.350;10.102;2022-08-18T15:00:58;8.20;;;7.50;;
6292;SDS011;3179;54.350;10.102;2022-08-18T15:03:34;8.57;;;7.87;;
6292;SDS011;3179;54.350;10.102;2022-08-18T15:06:02;7.43;;;6.90;;
6292;SDS011;3179;54.350;10.102;2022-08-18T15:08:32;8.67;;;7.87;;
6292;SDS011;3179;54.350;10.102;2022-08-18T15:11:04;8.43;;;7.73;;
6292;SDS011;3179;54.350;10.102;2022-08-18T15:13:32;9.80;;;9.00;;
6292;SDS011;3179;54.350;10.102;2022-08-18T15:16:03;9.80;;;9.00;;
6292;SDS011;3179;54.350;10.102;2022-08-18T15:18:37;9.00;;;8.30;;
6292;SDS011;3179;54.350;10.102;2022-08-18T15:21:04;10.00;;;8.97;;
6292;SDS011;3179;54.350;10.102;2022-08-18T15:23:49;9.00;;;8.03;;
6292;SDS011;3179;54.350;10.102;2022-08-18T15:26:33;9.43;;;8.57;;
6292;SDS011;3179;54.350;10.102;2022-08-18T15:29:02;9.47;;;8.77;;
6292;SDS011;3179;54.350;10.102;2022-08-18T15:31:33;11.50;;;10.53;;
6292;SDS011;3179;54.350;10.102;2022-08-18T15:34:00;9.03;;;8.20;;
6292;SDS011;3179;54.350;10.102;2022-08-18T15:36:31;9.97;;;9.17;;
6292;SDS011;3179;54.350;10.102;2022-08-18T15:39:00;9.33;;;8.53;;
6292;SDS011;3179;54.350;10.102;2022-08-18T15:41:30;10.67;;;9.67;;
6292;SDS011;3179;54.350;10.102;2022-08-18T15:44:00;10.70;;;9.80;;
6292;SDS011;3179;54.350;10.102;2022-08-18T15:46:29;9.70;;;8.90;;
6292;SDS011;3179;54.350;10.102;2022-08-18T15:48:59;10.70;;;9.80;;
6292;SDS011;3179;54.350;10.102;2022-08-18T15:51:28;9.73;;;8.73;;
6292;SDS011;3179;54.350;10.102;2022-08-18T15:53:57;10.37;;;9.47;;
6292;SDS011;3179;54.350;10.102;2022-08-18T15:56:24;10.13;;;9.30;;
6292;SDS011;3179;54.350;10.102;2022-08-18T15:58:52;10.60;;;9.60;;
6292;SDS011;3179;54.350;10.102;2022-08-18T16:01:20;11.00;;;10.03;;
6292;SDS011;3179;54.350;10.102;2022-08-18T16:03:49;9.53;;;8.83;;
6292;SDS011;3179;54.350;10.102;2022-08-18T16:06:21;11.47;;;10.47;;